createdAt,value
2022-10-17T00:00:55.464Z,307.57
2022-10-17T00:03:23.471Z,244.57
2022-10-17T00:05:51.539Z,245.17
2022-10-17T00:08:19.935Z,228.40
2022-10-17T00:10:57.493Z,381.40
2022-10-17T00:13:25.861Z,220.53
2022-10-17T00:15:55.326Z,313.90
2022-10-17T00:18:23.724Z,127.20
2022-10-17T00:20:51.863Z,252.27
2022-10-17T00:23:19.937Z,429.87
2022-10-17T00:25:48.059Z,141.10
2022-10-17T00:28:17.173Z,320.30
2022-10-17T00:30:45.208Z,382.23
2022-10-17T00:33:14.573Z,372.27
2022-10-17T00:35:42.586Z,118.87
2022-10-17T00:38:10.567Z,314.90
2022-10-17T00:40:38.599Z,176.63
2022-10-17T00:43:07.646Z,225.70
2022-10-17T00:45:35.684Z,186.30
2022-10-17T00:48:08.487Z,306.33
2022-10-17T00:50:40.850Z,87.23
2022-10-17T00:53:10.573Z,204.60
2022-10-17T00:55:46.032Z,163.87
2022-10-17T00:58:14.086Z,259.47
2022-10-17T01:00:43.158Z,231.20
2022-10-17T01:03:11.203Z,179.03
2022-10-17T01:05:42.375Z,404.20
2022-10-17T01:08:11.183Z,138.23
2022-10-17T01:10:50.296Z,234.73
2022-10-17T01:13:25.478Z,392.63
2022-10-17T01:16:00.975Z,375.83
2022-10-17T01:18:38.639Z,339.53
2022-10-17T01:21:39.467Z,215.10
2022-10-17T01:24:44.196Z,524.83
2022-10-17T01:27:46.008Z,466.77
2022-10-17T01:30:52.793Z,236.23
2022-10-17T01:33:33.475Z,109.77
2022-10-17T01:36:07.876Z,291.80
2022-10-17T01:38:40.359Z,216.17
2022-10-17T01:41:14.821Z,624.83
2022-10-17T01:43:49.782Z,318.40
2022-10-17T01:46:23.244Z,174.87
2022-10-17T01:48:54.779Z,242.50
2022-10-17T01:51:27.726Z,306.73
2022-10-17T01:54:02.732Z,378.03
2022-10-17T01:56:32.682Z,137.40
2022-10-17T01:59:05.582Z,241.63
2022-10-17T02:01:35.300Z,367.57
2022-10-17T02:04:06.583Z,267.93
2022-10-17T02:06:36.903Z,216.13
2022-10-17T02:09:18.438Z,295.00
2022-10-17T02:11:58.243Z,344.77
2022-10-17T02:14:39.017Z,354.43
2022-10-17T02:17:16.607Z,216.07
2022-10-17T02:19:56.565Z,113.30
2022-10-17T02:22:33.823Z,162.50
2022-10-17T02:25:10.765Z,90.53
2022-10-17T02:27:46.186Z,122.30
2022-10-17T02:30:21.373Z,376.93
2022-10-17T02:32:54.215Z,226.30
2022-10-17T02:35:27.066Z,104.80
2022-10-17T02:37:56.321Z,35.50
2022-10-17T02:40:26.567Z,275.87
2022-10-17T02:42:56.766Z,146.33
2022-10-17T02:45:27.498Z,60.10
2022-10-17T02:48:00.637Z,249.43
2022-10-17T02:50:40.156Z,44.97
2022-10-17T02:53:13.571Z,67.60
2022-10-17T02:55:48.967Z,238.67
2022-10-17T02:58:21.651Z,131.83
2022-10-17T03:00:50.611Z,291.97
2022-10-17T03:03:24.074Z,83.70
2022-10-17T03:05:54.294Z,94.37
2022-10-17T03:08:22.814Z,279.80
2022-10-17T03:10:51.108Z,243.87
2022-10-17T03:13:19.358Z,153.87
2022-10-17T03:15:47.501Z,249.77
2022-10-17T03:18:15.766Z,257.97
2022-10-17T03:20:43.780Z,179.90
2022-10-17T03:23:13.156Z,426.63
2022-10-17T03:25:41.542Z,259.43
2022-10-17T03:28:10.522Z,145.63
2022-10-17T03:30:39.738Z,51.40
2022-10-17T03:33:07.710Z,142.53
2022-10-17T03:35:35.752Z,82.40
2022-10-17T03:38:03.732Z,243.77
2022-10-17T03:40:33.109Z,228.70
2022-10-17T03:43:01.093Z,72.30
2022-10-17T03:45:29.366Z,86.07
2022-10-17T03:47:57.339Z,165.80
2022-10-17T03:50:25.356Z,190.97
2022-10-17T03:52:53.368Z,472.47
2022-10-17T03:55:21.386Z,384.87
2022-10-17T03:57:50.738Z,220.90
2022-10-17T04:00:18.762Z,304.17
2022-10-17T04:02:46.725Z,258.00
2022-10-17T04:05:14.925Z,293.57
2022-10-17T04:07:42.928Z,200.33
2022-10-17T04:10:11.383Z,211.97
2022-10-17T04:12:39.370Z,159.93
2022-10-17T04:15:10.360Z,124.70
2022-10-17T04:17:38.469Z,190.00
2022-10-17T04:20:07.411Z,209.70
2022-10-17T04:22:35.556Z,417.30
2022-10-17T04:25:03.733Z,82.17
2022-10-17T04:27:31.742Z,22.93
2022-10-17T04:29:59.787Z,175.57
2022-10-17T04:32:29.344Z,181.10
2022-10-17T04:34:57.584Z,156.90
2022-10-17T04:37:25.667Z,100.03
2022-10-17T04:39:53.671Z,232.87
2022-10-17T04:42:21.801Z,223.17
2022-10-17T04:44:49.880Z,210.33
2022-10-17T04:47:17.954Z,142.33
2022-10-17T04:49:47.531Z,228.03
2022-10-17T04:52:16.146Z,516.87
2022-10-17T04:54:44.257Z,146.80
2022-10-17T04:57:12.415Z,322.60
2022-10-17T04:59:40.480Z,258.10
2022-10-17T05:02:08.884Z,342.80
2022-10-17T05:04:36.940Z,199.80
2022-10-17T05:07:06.347Z,217.87
2022-10-17T05:09:34.370Z,99.03
2022-10-17T05:12:04.336Z,311.30
2022-10-17T05:14:34.678Z,327.60
2022-10-17T05:17:02.683Z,298.43
2022-10-17T05:19:30.703Z,149.17
2022-10-17T05:21:58.727Z,182.60
2022-10-17T05:24:28.178Z,283.83
2022-10-17T05:26:56.768Z,155.00
2022-10-17T05:29:24.853Z,524.30
2022-10-17T05:31:53.006Z,90.77
2022-10-17T05:34:21.056Z,364.73
2022-10-17T05:36:49.143Z,82.20
2022-10-17T05:39:19.631Z,291.63
2022-10-17T05:41:49.128Z,342.83
2022-10-17T05:44:17.886Z,202.07
2022-10-17T05:46:45.905Z,87.07
2022-10-17T05:49:19.653Z,158.73
2022-10-17T05:51:59.789Z,475.90
2022-10-17T05:54:28.147Z,220.30
2022-10-17T05:56:57.871Z,294.53
2022-10-17T05:59:26.679Z,287.23
2022-10-17T06:01:55.385Z,68.23
2022-10-17T06:04:23.493Z,78.90
2022-10-17T06:06:51.559Z,218.23
2022-10-17T06:09:19.567Z,301.20
2022-10-17T06:11:47.591Z,133.07
2022-10-17T06:14:16.979Z,157.53
2022-10-17T06:16:45.055Z,68.40
2022-10-17T06:19:13.056Z,78.70
2022-10-17T06:21:41.142Z,237.97
2022-10-17T06:24:09.152Z,132.90
2022-10-17T06:26:37.177Z,312.97
2022-10-17T06:29:05.327Z,153.70
2022-10-17T06:31:34.776Z,71.30
2022-10-17T06:34:02.752Z,155.83
2022-10-17T06:36:30.749Z,267.10
2022-10-17T06:38:58.748Z,273.53
2022-10-17T06:41:26.787Z,287.40
2022-10-17T06:43:54.844Z,166.67
2022-10-17T06:46:24.672Z,305.20
2022-10-17T06:48:54.152Z,69.93
2022-10-17T06:51:22.237Z,573.87
2022-10-17T06:53:50.295Z,215.47
2022-10-17T06:56:19.398Z,475.90
2022-10-17T06:58:49.446Z,680.30
2022-10-17T07:01:17.526Z,647.87
2022-10-17T07:03:48.366Z,677.90
2022-10-17T07:06:18.083Z,605.23
2022-10-17T07:08:47.004Z,713.77
2022-10-17T07:11:17.041Z,404.83
2022-10-17T07:13:45.671Z,460.70
2022-10-17T07:16:14.735Z,638.53
2022-10-17T07:18:43.872Z,674.10
2022-10-17T07:21:11.975Z,669.30
2022-10-17T07:23:41.608Z,670.35
2022-10-17T07:26:11.941Z,773.40
2022-10-17T07:28:41.391Z,740.22
2022-10-17T07:31:11.383Z,738.83
2022-10-17T07:33:39.702Z,751.70
2022-10-17T07:36:08.442Z,755.15
2022-10-17T07:38:38.005Z,672.95
2022-10-17T07:41:10.241Z,549.00
2022-10-17T07:43:38.865Z,738.60
2022-10-17T07:46:08.383Z,520.88
2022-10-17T07:48:36.627Z,533.28
2022-10-17T07:51:06.311Z,624.90
2022-10-17T07:53:36.477Z,581.40
2022-10-17T07:56:08.305Z,689.42
2022-10-17T07:58:37.059Z,556.83
2022-10-17T08:01:08.398Z,509.05
2022-10-17T08:03:38.943Z,424.98
2022-10-17T08:06:07.211Z,417.43
2022-10-17T08:08:35.472Z,617.72
2022-10-17T08:11:04.992Z,578.15
2022-10-17T08:13:35.143Z,461.13
2022-10-17T08:16:04.233Z,528.92
2022-10-17T08:18:32.674Z,590.58
2022-10-17T08:21:01.337Z,424.75
2022-10-17T08:23:29.508Z,540.80
2022-10-17T08:26:00.824Z,574.72
2022-10-17T08:28:29.082Z,631.13
2022-10-17T08:31:05.271Z,519.58
2022-10-17T08:33:33.543Z,709.92
2022-10-17T08:36:02.078Z,541.70
2022-10-17T08:38:34.638Z,536.85
2022-10-17T08:41:05.600Z,635.65
2022-10-17T08:43:44.919Z,575.75
2022-10-17T08:48:46.701Z,511.27
2022-10-17T08:51:18.018Z,622.67
2022-10-17T08:53:51.980Z,541.47
2022-10-17T08:56:25.180Z,652.10
2022-10-17T08:59:13.810Z,443.83
2022-10-17T09:01:51.191Z,627.28
2022-10-17T09:04:49.728Z,623.03
2022-10-17T09:07:23.424Z,623.05
2022-10-17T09:10:00.259Z,641.08
2022-10-17T09:12:36.903Z,563.80
2022-10-17T09:15:24.916Z,619.30
2022-10-17T09:17:59.347Z,640.13
2022-10-17T09:20:29.936Z,497.27
2022-10-17T09:23:00.808Z,712.00
2022-10-17T09:25:29.390Z,559.15
2022-10-17T09:28:05.710Z,560.15
2022-10-17T09:30:46.243Z,678.55
2022-10-17T09:33:28.521Z,542.35
2022-10-17T09:36:11.061Z,660.95
2022-10-17T09:38:42.500Z,695.17
2022-10-17T09:41:43.110Z,688.25
2022-10-17T09:44:18.873Z,585.92
2022-10-17T09:47:10.529Z,613.53
2022-10-17T09:49:41.583Z,651.33
2022-10-17T09:52:14.954Z,636.45
2022-10-17T09:54:46.079Z,530.17
2022-10-17T09:57:16.123Z,740.40
2022-10-17T09:59:46.811Z,704.35
2022-10-17T10:02:21.613Z,678.53
2022-10-17T10:05:06.444Z,676.13
2022-10-17T10:07:37.522Z,585.78
2022-10-17T10:10:08.166Z,695.22
2022-10-17T10:12:38.741Z,609.10
2022-10-17T10:15:33.446Z,640.78
2022-10-17T10:18:01.743Z,642.92
2022-10-17T10:20:34.082Z,688.80
2022-10-17T10:23:14.539Z,798.50
2022-10-17T10:25:55.645Z,872.78
2022-10-17T10:28:28.069Z,762.65
2022-10-17T10:30:57.771Z,689.28
2022-10-17T10:33:29.387Z,721.55
2022-10-17T10:36:01.818Z,761.97
2022-10-17T10:38:31.339Z,713.25
2022-10-17T10:41:04.590Z,695.65
2022-10-17T10:43:36.899Z,794.90
2022-10-17T10:46:07.462Z,771.95
2022-10-17T10:48:37.062Z,839.47
2022-10-17T10:51:12.936Z,644.40
2022-10-17T10:53:48.188Z,759.65
2022-10-17T10:56:20.621Z,754.42
2022-10-17T10:58:55.012Z,735.20
2022-10-17T11:01:31.181Z,685.03
2022-10-17T11:04:08.942Z,635.88
2022-10-17T11:06:42.183Z,610.72
2022-10-17T11:09:30.069Z,678.38
2022-10-17T11:12:07.210Z,722.03
2022-10-17T11:14:44.528Z,874.28
2022-10-17T11:17:21.192Z,802.58
2022-10-17T11:19:57.366Z,758.53
2022-10-17T11:22:30.934Z,778.58
2022-10-17T11:25:02.004Z,757.28
2022-10-17T11:27:31.839Z,747.70
2022-10-17T11:30:00.179Z,859.13
2022-10-17T11:32:32.857Z,710.13
2022-10-17T11:35:06.655Z,871.75
2022-10-17T11:37:40.753Z,740.33
2022-10-17T11:40:20.471Z,722.28
2022-10-17T11:42:56.087Z,702.90
2022-10-17T11:45:27.478Z,777.03
2022-10-17T11:47:59.870Z,847.38
2022-10-17T11:53:22.748Z,741.83
2022-10-17T11:55:53.618Z,768.97
2022-10-17T11:58:34.044Z,611.45
2022-10-17T12:01:13.555Z,864.75
2022-10-17T12:03:53.117Z,824.88
2022-10-17T12:06:33.363Z,902.50
2022-10-17T12:09:12.994Z,721.55
2022-10-17T12:11:53.952Z,814.33
2022-10-17T12:14:42.992Z,786.00
2022-10-17T12:17:29.354Z,801.28
2022-10-17T12:20:27.286Z,795.58
2022-10-17T12:22:57.227Z,841.83
2022-10-17T12:25:31.479Z,768.00
2022-10-17T12:28:14.333Z,782.53
2022-10-17T12:30:57.573Z,851.80
2022-10-17T12:33:33.988Z,770.70
2022-10-17T12:36:50.385Z,799.47
2022-10-17T12:39:52.435Z,797.28
2022-10-17T12:42:51.257Z,764.28
2022-10-17T12:45:51.432Z,725.40
2022-10-17T12:49:00.357Z,757.17
2022-10-17T12:51:37.898Z,781.53
2022-10-17T12:54:12.525Z,802.80
2022-10-17T12:56:42.524Z,653.13
2022-10-17T12:59:18.821Z,581.55
2022-10-17T13:01:49.476Z,812.20
2022-10-17T13:04:18.846Z,766.03
2022-10-17T13:06:49.236Z,785.08
2022-10-17T13:09:26.864Z,778.40
2022-10-17T13:11:57.447Z,786.53
2022-10-17T13:14:28.031Z,837.40
2022-10-17T13:16:58.417Z,823.75
2022-10-17T13:19:28.301Z,881.53
2022-10-17T13:21:59.821Z,833.80
2022-10-17T13:24:33.856Z,831.03
2022-10-17T13:27:03.128Z,790.08
2022-10-17T13:29:33.118Z,858.55
2022-10-17T13:32:04.106Z,738.47
2022-10-17T13:34:33.646Z,818.17
2022-10-17T13:37:05.396Z,781.58
2022-10-17T13:39:54.427Z,747.28
2022-10-17T13:42:26.986Z,842.35
2022-10-17T13:44:57.094Z,940.78
2022-10-17T13:47:27.863Z,733.72
2022-10-17T13:49:57.527Z,824.15
2022-10-17T13:52:28.460Z,698.88
2022-10-17T13:55:07.680Z,824.00
2022-10-17T13:57:35.686Z,821.70
2022-10-17T14:00:11.635Z,588.13
2022-10-17T14:02:42.349Z,739.17
2022-10-17T14:05:18.638Z,760.20
2022-10-17T14:08:11.172Z,815.95
2022-10-17T14:10:41.221Z,755.13
2022-10-17T14:13:19.997Z,807.28
2022-10-17T14:15:49.936Z,690.92
2022-10-17T14:18:22.090Z,828.08
2022-10-17T14:23:41.155Z,810.40
2022-10-17T14:26:15.074Z,879.58
2022-10-17T14:28:45.703Z,702.88
2022-10-17T14:31:27.578Z,759.80
2022-10-17T14:33:55.946Z,820.42
2022-10-17T14:36:38.484Z,768.28
2022-10-17T14:39:13.399Z,702.45
2022-10-17T14:41:45.589Z,699.58
2022-10-17T14:44:25.190Z,794.08
2022-10-17T14:46:59.395Z,755.10
2022-10-17T14:49:33.531Z,742.85
2022-10-17T14:52:28.369Z,727.67
2022-10-17T14:54:57.873Z,713.65
2022-10-17T14:57:29.479Z,730.72
2022-10-17T14:59:58.412Z,628.78
2022-10-17T15:02:31.203Z,778.30
2022-10-17T15:04:59.461Z,707.90
2022-10-17T15:07:27.480Z,738.80
2022-10-17T15:09:55.460Z,838.97
2022-10-17T15:12:26.195Z,779.53
2022-10-17T15:14:54.800Z,681.97
2022-10-17T15:17:25.400Z,779.58
2022-10-17T15:19:55.020Z,673.03
2022-10-17T15:22:23.317Z,652.38
2022-10-17T15:24:51.678Z,739.22
2022-10-17T15:27:21.979Z,692.65
2022-10-17T15:29:50.544Z,618.78
2022-10-17T15:32:18.792Z,491.70
2022-10-17T15:34:47.040Z,645.50
2022-10-17T15:37:20.979Z,854.03
2022-10-17T15:39:53.363Z,566.63
2022-10-17T15:42:22.974Z,724.85
2022-10-17T15:44:51.128Z,715.97
2022-10-17T15:47:25.476Z,736.78
2022-10-17T15:49:54.159Z,641.53
2022-10-17T15:52:23.666Z,728.65
2022-10-17T15:54:51.849Z,766.42
2022-10-17T15:57:21.999Z,783.88
2022-10-17T15:59:52.139Z,723.83
2022-10-17T16:02:24.183Z,773.63
2022-10-17T16:04:53.247Z,719.50
2022-10-17T16:07:23.290Z,699.47
2022-10-17T16:09:51.343Z,620.22
2022-10-17T16:14:54.793Z,706.13
2022-10-17T16:17:22.786Z,723.80
2022-10-17T16:19:50.791Z,609.15
2022-10-17T16:22:26.897Z,694.90
2022-10-17T16:24:58.657Z,656.47
2022-10-17T16:27:27.315Z,663.03
2022-10-17T16:29:55.319Z,710.60
2022-10-17T16:32:23.294Z,570.50
2022-10-17T16:34:51.361Z,673.28
2022-10-17T16:37:19.339Z,701.55
2022-10-17T16:39:52.523Z,689.70
2022-10-17T16:42:21.215Z,552.38
2022-10-17T16:44:49.311Z,476.77
2022-10-17T16:47:17.711Z,599.00
2022-10-17T16:49:45.767Z,544.42
2022-10-17T16:52:14.138Z,532.53
2022-10-17T16:54:42.137Z,578.58
2022-10-17T16:57:11.541Z,457.48
2022-10-17T16:59:39.541Z,512.50
2022-10-17T17:02:07.984Z,616.28
2022-10-17T17:04:36.015Z,705.33
2022-10-17T17:07:04.044Z,774.55
2022-10-17T17:09:32.046Z,536.55
2022-10-17T17:12:00.050Z,754.85
2022-10-17T17:14:29.455Z,770.58
2022-10-17T17:16:57.463Z,785.45
2022-10-17T17:19:25.618Z,764.15
2022-10-17T17:21:53.641Z,737.38
2022-10-17T17:24:22.392Z,762.30
2022-10-17T17:26:53.258Z,718.10
2022-10-17T17:29:21.465Z,728.33
2022-10-17T17:31:50.998Z,803.28
2022-10-17T17:34:19.099Z,506.80
2022-10-17T17:36:47.586Z,755.95
2022-10-17T17:39:16.544Z,753.08
2022-10-17T17:41:45.798Z,549.78
2022-10-17T17:44:16.738Z,699.83
2022-10-17T17:46:45.531Z,731.30
2022-10-17T17:49:14.938Z,670.20
2022-10-17T17:51:46.306Z,664.15
2022-10-17T17:54:14.783Z,491.08
2022-10-17T17:56:42.984Z,800.10
2022-10-17T17:59:13.401Z,763.50
2022-10-17T18:01:41.558Z,651.72
2022-10-17T18:04:10.306Z,740.22
2022-10-17T18:06:40.402Z,664.60
2022-10-17T18:09:09.066Z,691.55
2022-10-17T18:11:38.323Z,661.13
2022-10-17T18:14:12.228Z,698.67
2022-10-17T18:16:40.262Z,651.10
2022-10-17T18:19:09.891Z,723.13
2022-10-17T18:21:39.387Z,778.88
2022-10-17T18:24:08.278Z,593.05
2022-10-17T18:26:36.599Z,639.72
2022-10-17T18:29:05.133Z,662.40
2022-10-17T18:31:35.856Z,657.05
2022-10-17T18:34:06.072Z,611.55
2022-10-17T18:36:35.575Z,585.10
2022-10-17T18:39:06.124Z,693.88
2022-10-17T18:41:34.696Z,507.60
2022-10-17T18:44:03.895Z,535.67
2022-10-17T18:46:40.454Z,647.70
2022-10-17T18:49:09.215Z,518.97
2022-10-17T18:51:37.946Z,529.85
2022-10-17T18:54:13.031Z,423.25
2022-10-17T18:56:41.168Z,605.95
2022-10-17T18:59:09.179Z,718.10
2022-10-17T19:01:37.240Z,351.05
2022-10-17T19:04:05.288Z,624.60
2022-10-17T19:06:33.564Z,701.47
2022-10-17T19:09:02.742Z,649.58
2022-10-17T19:11:34.152Z,565.17
2022-10-17T19:14:04.418Z,719.85
2022-10-17T19:16:34.159Z,601.78
2022-10-17T19:19:05.715Z,691.35
2022-10-17T19:21:34.101Z,714.47
2022-10-17T19:24:04.350Z,553.95
2022-10-17T19:26:36.809Z,534.17
2022-10-17T19:29:05.788Z,421.15
2022-10-17T19:31:36.461Z,551.00
2022-10-17T19:34:05.374Z,523.67
2022-10-17T19:36:35.370Z,434.80
2022-10-17T19:39:04.807Z,535.03
2022-10-17T19:41:35.423Z,629.05
2022-10-17T19:44:03.573Z,485.17
2022-10-17T19:46:33.901Z,574.65
2022-10-17T19:49:02.117Z,604.33
2022-10-17T19:51:30.764Z,471.15
2022-10-17T19:54:01.448Z,621.50
2022-10-17T19:56:31.541Z,574.88
2022-10-17T19:59:01.027Z,626.20
2022-10-17T20:01:31.348Z,577.25
2022-10-17T20:03:59.386Z,542.97
2022-10-17T20:06:28.080Z,589.60
2022-10-17T20:08:56.636Z,587.20
2022-10-17T20:11:26.222Z,479.90
2022-10-17T20:13:54.764Z,591.80
2022-10-17T20:16:26.615Z,552.67
2022-10-17T20:18:56.471Z,583.20
2022-10-17T20:21:27.314Z,422.52
2022-10-17T20:23:55.815Z,488.73
2022-10-17T20:26:37.037Z,435.25
2022-10-17T20:29:11.004Z,508.38
2022-10-17T20:31:41.991Z,436.95
2022-10-17T20:34:12.973Z,531.33
2022-10-17T20:36:41.391Z,577.78
2022-10-17T20:39:11.312Z,630.03
2022-10-17T20:41:39.916Z,564.10
2022-10-17T20:44:08.107Z,546.42
2022-10-17T20:46:39.803Z,484.15
2022-10-17T20:49:16.364Z,577.33
2022-10-17T20:51:44.460Z,477.20
2022-10-17T20:54:13.038Z,615.22
2022-10-17T20:56:41.287Z,321.88
2022-10-17T20:59:13.100Z,547.40
2022-10-17T21:01:41.327Z,599.17
2022-10-17T21:06:59.744Z,440.10
2022-10-17T21:09:27.854Z,309.83
2022-10-17T21:11:56.801Z,421.80
2022-10-17T21:14:25.920Z,410.33
2022-10-17T21:16:54.222Z,612.75
2022-10-17T21:19:22.830Z,635.70
2022-10-17T21:21:51.188Z,344.90
2022-10-17T21:24:20.907Z,494.00
2022-10-17T21:26:55.127Z,467.25
2022-10-17T21:29:24.182Z,598.40
2022-10-17T21:31:53.061Z,330.98
2022-10-17T21:34:23.925Z,483.00
2022-10-17T21:36:52.459Z,457.50
2022-10-17T21:39:24.135Z,319.35
2022-10-17T21:41:52.987Z,369.60
2022-10-17T21:44:23.193Z,432.50
2022-10-17T21:46:52.129Z,435.38
2022-10-17T21:49:22.315Z,416.30
2022-10-17T21:51:50.807Z,445.02
2022-10-17T21:54:20.500Z,525.22
2022-10-17T21:56:50.454Z,542.63
2022-10-17T21:59:18.515Z,262.33
2022-10-17T22:01:47.421Z,517.22
2022-10-17T22:04:18.023Z,628.25
2022-10-17T22:06:47.862Z,322.35
2022-10-17T22:09:17.351Z,606.63
2022-10-17T22:11:47.182Z,393.38
2022-10-17T22:14:19.811Z,518.25
2022-10-17T22:16:49.407Z,422.65
2022-10-17T22:19:19.312Z,619.88
2022-10-17T22:21:47.323Z,531.08
2022-10-17T22:24:16.369Z,581.63
2022-10-17T22:26:44.901Z,522.45
2022-10-17T22:29:13.416Z,588.92
2022-10-17T22:31:43.096Z,661.83
2022-10-17T22:34:13.502Z,382.38
2022-10-17T22:36:41.759Z,660.80
2022-10-17T22:39:10.131Z,427.77
2022-10-17T22:41:38.164Z,517.75
2022-10-17T22:44:06.849Z,448.00
2022-10-17T22:46:34.920Z,494.35
2022-10-17T22:49:04.421Z,422.42
2022-10-17T22:51:33.009Z,664.38
2022-10-17T22:54:01.074Z,638.08
2022-10-17T22:56:29.147Z,522.58
2022-10-17T22:58:57.177Z,565.05
2022-10-17T23:01:26.741Z,551.30
2022-10-17T23:03:55.145Z,605.75
2022-10-17T23:06:24.709Z,484.40
2022-10-17T23:08:53.274Z,563.47
2022-10-17T23:11:21.872Z,452.15
2022-10-17T23:13:50.023Z,492.00
2022-10-17T23:16:18.006Z,475.63
2022-10-17T23:18:46.052Z,529.00
2022-10-17T23:21:14.271Z,587.85
2022-10-17T23:23:43.653Z,463.20
2022-10-17T23:26:15.193Z,495.67
2022-10-17T23:28:44.217Z,392.55
2022-10-17T23:31:14.586Z,399.25
2022-10-17T23:33:42.969Z,533.20
2022-10-17T23:36:12.258Z,382.38
2022-10-17T23:38:40.648Z,391.73
2022-10-17T23:41:10.624Z,492.98
2022-10-17T23:43:38.884Z,255.18
2022-10-17T23:46:07.863Z,326.88
2022-10-17T23:48:36.115Z,486.55
2022-10-17T23:51:04.460Z,531.88
2022-10-17T23:53:32.612Z,512.20
2022-10-17T23:56:00.698Z,523.58
2022-10-17T23:58:30.208Z,525.60
